KDBQ/DBQ METAR and TAF weather

Enter ICAO airport designator
Station Type Date Time Source
KDBQ METAR 2020/01/26 18:53 UTC NOAA

KDBQ 261853Z 28009KT 10SM OVC009 M03/M05 A2990 RMK AO2 SLP139 T10281050


Station Type Date Time Source
KDBQ Decoded METAR 2020/01/26 18:53 UTC NOAA

DUBUQUE REGIONAL AIRPORT, IA, United States (KDBQ) 42-24N 90-42W 326M
Jan 26, 2020 - 01:53 PM EST / 2020.01.26 1853 UTC
Wind: from the W (280 degrees) at 10 MPH (9 KT):0
Visibility: 10 mile(s):0
Sky conditions: overcast
Temperature: 27.0 F (-2.8 C)
Windchill: 17 F (-8 C):1
Dew Point: 23.0 F (-5.0 C)
Relative Humidity: 84%
Pressure (altimeter): 29.9 in. Hg (1012 hPa)
ob: KDBQ 261853Z 28009KT 10SM OVC009 M03/M05 A2990 RMK AO2 SLP139 T10281050
cycle: 19

Station Type Date Time Source
KDBQ TAF 2020/01/26 18:22 UTC NOAA

TAF KDBQ 261720Z 2618/2718 28009KT 6SM BR OVC005
FM261900 29007KT P6SM SCT008 OVC015
FM262200 28007KT P6SM OVC008
FM270800 VRB04KT 3SM BR SCT003 OVC005

Example: see airport list